Terminal Aerodrome Forecast
Issued by NWS Burlington, VT

Home | Current Version | Previous Version | Text Only | Print | Product List | Glossary On
Versions: 1 2 3 4 5 6 7 8 9 10 11 12 13 14 15 16
201
FTUS41 KBTV 162320
TAFBTV
TAF
KBTV 162320Z 1700/1724 34007KT P6SM SCT040 BKN060
     FM170600 VRB03KT P6SM SKC
     FM171300 18007KT P6SM FEW200
     FM171800 19010G17KT P6SM SCT150=

USA.gov is the U.S. government's official web portal to all federal, state and local government web resources and services.